sensor_id;sensor_type;location;lat;lon;timestamp;temperature;humidity
26505;DHT22;19493;48.042;7.584;2023-07-31T00:00:38;15.00;99.90
26505;DHT22;19493;48.042;7.584;2023-07-31T00:03:04;14.90;99.90
26505;DHT22;19493;48.042;7.584;2023-07-31T00:05:29;14.80;99.90
26505;DHT22;19493;48.042;7.584;2023-07-31T00:07:55;14.80;99.90
26505;DHT22;19493;48.042;7.584;2023-07-31T00:10:20;14.80;99.90
26505;DHT22;19493;48.042;7.584;2023-07-31T00:12:46;15.10;99.90
26505;DHT22;19493;48.042;7.584;2023-07-31T00:15:13;15.30;99.90
26505;DHT22;19493;48.042;7.584;2023-07-31T00:17:39;15.50;99.90
26505;DHT22;19493;48.042;7.584;2023-07-31T00:20:05;15.60;99.90
26505;DHT22;19493;48.042;7.584;2023-07-31T00:22:30;15.70;99.90
26505;DHT22;19493;48.042;7.584;2023-07-31T00:24:56;15.70;99.90
26505;DHT22;19493;48.042;7.584;2023-07-31T00:27:22;15.70;99.90
26505;DHT22;19493;48.042;7.584;2023-07-31T00:29:48;15.80;99.90
26505;DHT22;19493;48.042;7.584;2023-07-31T00:32:13;15.80;99.90
26505;DHT22;19493;48.042;7.584;2023-07-31T00:34:39;15.80;99.90
26505;DHT22;19493;48.042;7.584;2023-07-31T00:37:05;15.80;99.90
26505;DHT22;19493;48.042;7.584;2023-07-31T00:39:30;15.70;99.90
26505;DHT22;19493;48.042;7.584;2023-07-31T00:41:56;15.70;99.90
26505;DHT22;19493;48.042;7.584;2023-07-31T00:44:22;15.60;99.90
26505;DHT22;19493;48.042;7.584;2023-07-31T00:46:48;15.40;99.90
26505;DHT22;19493;48.042;7.584;2023-07-31T00:49:14;15.20;99.90
26505;DHT22;19493;48.042;7.584;2023-07-31T00:51:40;15.10;99.90
26505;DHT22;19493;48.042;7.584;2023-07-31T00:54:06;15.00;99.90
26505;DHT22;19493;48.042;7.584;2023-07-31T00:56:32;14.90;99.90
26505;DHT22;19493;48.042;7.584;2023-07-31T00:58:58;14.80;99.90
26505;DHT22;19493;48.042;7.584;2023-07-31T01:01:23;14.70;99.90
26505;DHT22;19493;48.042;7.584;2023-07-31T01:03:50;14.60;99.90
26505;DHT22;19493;48.042;7.584;2023-07-31T01:06:39;14.60;99.90
26505;DHT22;19493;48.042;7.584;2023-07-31T01:12:04;14.50;99.90
26505;DHT22;19493;48.042;7.584;2023-07-31T01:14:31;14.40;99.90
26505;DHT22;19493;48.042;7.584;2023-07-31T01:16:57;14.40;99.90
26505;DHT22;19493;48.042;7.584;2023-07-31T01:19:24;14.30;99.90
26505;DHT22;19493;48.042;7.584;2023-07-31T01:22:14;14.30;99.90
26505;DHT22;19493;48.042;7.584;2023-07-31T01:25:13;14.40;99.90
26505;DHT22;19493;48.042;7.584;2023-07-31T01:27:58;14.40;99.90
26505;DHT22;19493;48.042;7.584;2023-07-31T01:30:37;14.50;99.90
26505;DHT22;19493;48.042;7.584;2023-07-31T01:33:03;14.60;99.90
26505;DHT22;19493;48.042;7.584;2023-07-31T01:35:34;14.60;99.90
26505;DHT22;19493;48.042;7.584;2023-07-31T01:38:00;14.70;99.90
26505;DHT22;19493;48.042;7.584;2023-07-31T01:40:25;14.70;99.90
26505;DHT22;19493;48.042;7.584;2023-07-31T01:42:51;14.70;99.90
26505;DHT22;19493;48.042;7.584;2023-07-31T01:45:16;14.70;99.90
26505;DHT22;19493;48.042;7.584;2023-07-31T01:47:42;14.70;99.90
26505;DHT22;19493;48.042;7.584;2023-07-31T01:50:08;14.70;99.90
26505;DHT22;19493;48.042;7.584;2023-07-31T01:52:33;14.70;99.90
26505;DHT22;19493;48.042;7.584;2023-07-31T01:54:59;14.70;99.90
26505;DHT22;19493;48.042;7.584;2023-07-31T01:57:25;14.60;99.90
26505;DHT22;19493;48.042;7.584;2023-07-31T01:59:50;14.60;99.90
26505;DHT22;19493;48.042;7.584;2023-07-31T02:02:16;14.50;99.90
26505;DHT22;19493;48.042;7.584;2023-07-31T02:04:41;14.30;99.90
26505;DHT22;19493;48.042;7.584;2023-07-31T02:07:07;14.20;99.90
26505;DHT22;19493;48.042;7.584;2023-07-31T02:09:32;14.20;99.90
26505;DHT22;19493;48.042;7.584;2023-07-31T02:11:58;14.10;99.90
26505;DHT22;19493;48.042;7.584;2023-07-31T02:14:24;14.00;99.90
26505;DHT22;19493;48.042;7.584;2023-07-31T02:16:50;14.00;99.90
26505;DHT22;19493;48.042;7.584;2023-07-31T02:19:15;14.00;99.90
26505;DHT22;19493;48.042;7.584;2023-07-31T02:21:41;14.00;99.90
26505;DHT22;19493;48.042;7.584;2023-07-31T02:24:06;14.00;99.90
26505;DHT22;19493;48.042;7.584;2023-07-31T02:26:32;14.20;99.90
26505;DHT22;19493;48.042;7.584;2023-07-31T02:28:57;14.30;99.90
26505;DHT22;19493;48.042;7.584;2023-07-31T02:31:23;14.50;99.90
26505;DHT22;19493;48.042;7.584;2023-07-31T02:33:48;14.60;99.90
26505;DHT22;19493;48.042;7.584;2023-07-31T02:36:14;14.80;99.90
26505;DHT22;19493;48.042;7.584;2023-07-31T02:38:40;14.80;99.90
26505;DHT22;19493;48.042;7.584;2023-07-31T02:41:06;14.90;99.90
26505;DHT22;19493;48.042;7.584;2023-07-31T02:43:31;14.90;99.90
26505;DHT22;19493;48.042;7.584;2023-07-31T02:45:57;15.00;99.90
26505;DHT22;19493;48.042;7.584;2023-07-31T02:48:22;15.10;99.90
26505;DHT22;19493;48.042;7.584;2023-07-31T02:50:48;15.10;99.90
26505;DHT22;19493;48.042;7.584;2023-07-31T02:53:14;15.10;99.90
26505;DHT22;19493;48.042;7.584;2023-07-31T02:55:40;15.10;99.90
26505;DHT22;19493;48.042;7.584;2023-07-31T02:58:06;15.10;99.90
26505;DHT22;19493;48.042;7.584;2023-07-31T03:00:31;15.10;99.90
26505;DHT22;19493;48.042;7.584;2023-07-31T03:02:57;15.10;99.90
26505;DHT22;19493;48.042;7.584;2023-07-31T03:05:22;15.10;99.90
26505;DHT22;19493;48.042;7.584;2023-07-31T03:07:48;15.00;99.90
26505;DHT22;19493;48.042;7.584;2023-07-31T03:10:14;15.00;99.90
26505;DHT22;19493;48.042;7.584;2023-07-31T03:12:40;14.90;99.90
26505;DHT22;19493;48.042;7.584;2023-07-31T03:15:06;14.90;99.90
26505;DHT22;19493;48.042;7.584;2023-07-31T03:17:32;14.90;99.90
26505;DHT22;19493;48.042;7.584;2023-07-31T03:19:57;14.90;99.90
26505;DHT22;19493;48.042;7.584;2023-07-31T03:22:23;14.90;99.90
26505;DHT22;19493;48.042;7.584;2023-07-31T03:24:48;14.90;99.90
26505;DHT22;19493;48.042;7.584;2023-07-31T03:27:14;14.90;99.90
26505;DHT22;19493;48.042;7.584;2023-07-31T03:29:39;14.80;99.90
26505;DHT22;19493;48.042;7.584;2023-07-31T03:32:05;14.70;99.90
26505;DHT22;19493;48.042;7.584;2023-07-31T03:34:31;14.70;99.90
26505;DHT22;19493;48.042;7.584;2023-07-31T03:36:58;14.70;99.90
26505;DHT22;19493;48.042;7.584;2023-07-31T03:39:23;14.70;99.90
26505;DHT22;19493;48.042;7.584;2023-07-31T03:41:49;14.70;99.90
26505;DHT22;19493;48.042;7.584;2023-07-31T03:44:14;14.70;99.90
26505;DHT22;19493;48.042;7.584;2023-07-31T03:46:40;14.80;99.90
26505;DHT22;19493;48.042;7.584;2023-07-31T03:49:05;14.80;99.90
26505;DHT22;19493;48.042;7.584;2023-07-31T03:51:31;14.80;99.90
26505;DHT22;19493;48.042;7.584;2023-07-31T03:53:56;14.90;99.90
26505;DHT22;19493;48.042;7.584;2023-07-31T03:56:22;14.90;99.90
26505;DHT22;19493;48.042;7.584;2023-07-31T03:58:47;14.90;99.90
26505;DHT22;19493;48.042;7.584;2023-07-31T04:01:32;14.90;99.90
26505;DHT22;19493;48.042;7.584;2023-07-31T04:03:57;14.90;99.90
26505;DHT22;19493;48.042;7.584;2023-07-31T04:06:23;14.90;99.90
26505;DHT22;19493;48.042;7.584;2023-07-31T04:08:49;14.90;99.90
26505;DHT22;19493;48.042;7.584;2023-07-31T04:11:14;14.90;99.90
26505;DHT22;19493;48.042;7.584;2023-07-31T04:13:40;15.00;99.90
26505;DHT22;19493;48.042;7.584;2023-07-31T04:16:05;15.10;99.90
26505;DHT22;19493;48.042;7.584;2023-07-31T04:18:31;15.10;99.90
26505;DHT22;19493;48.042;7.584;2023-07-31T04:20:58;15.20;99.90
26505;DHT22;19493;48.042;7.584;2023-07-31T04:23:24;15.20;99.90
26505;DHT22;19493;48.042;7.584;2023-07-31T04:25:50;15.30;99.90
26505;DHT22;19493;48.042;7.584;2023-07-31T04:28:15;15.40;99.90
26505;DHT22;19493;48.042;7.584;2023-07-31T04:30:41;15.40;99.90
26505;DHT22;19493;48.042;7.584;2023-07-31T04:33:06;15.40;99.90
26505;DHT22;19493;48.042;7.584;2023-07-31T04:35:32;15.40;99.90
26505;DHT22;19493;48.042;7.584;2023-07-31T04:37:58;15.40;99.90
26505;DHT22;19493;48.042;7.584;2023-07-31T04:40:23;15.40;99.90
26505;DHT22;19493;48.042;7.584;2023-07-31T04:42:49;15.40;99.90
26505;DHT22;19493;48.042;7.584;2023-07-31T04:45:14;15.40;99.90
26505;DHT22;19493;48.042;7.584;2023-07-31T04:47:40;15.30;99.90
26505;DHT22;19493;48.042;7.584;2023-07-31T04:50:14;15.40;99.90
26505;DHT22;19493;48.042;7.584;2023-07-31T04:52:39;15.30;99.90
26505;DHT22;19493;48.042;7.584;2023-07-31T04:55:18;15.40;99.90
26505;DHT22;19493;48.042;7.584;2023-07-31T04:57:44;15.40;99.90
26505;DHT22;19493;48.042;7.584;2023-07-31T05:00:10;15.40;99.90
26505;DHT22;19493;48.042;7.584;2023-07-31T05:02:35;15.40;99.90
26505;DHT22;19493;48.042;7.584;2023-07-31T05:05:01;15.50;99.90
26505;DHT22;19493;48.042;7.584;2023-07-31T05:07:27;15.50;99.90
26505;DHT22;19493;48.042;7.584;2023-07-31T05:09:52;15.60;99.90
26505;DHT22;19493;48.042;7.584;2023-07-31T05:12:18;15.60;99.90
26505;DHT22;19493;48.042;7.584;2023-07-31T05:14:43;15.60;99.90
26505;DHT22;19493;48.042;7.584;2023-07-31T05:17:09;15.70;99.90
26505;DHT22;19493;48.042;7.584;2023-07-31T05:19:35;15.70;99.90
26505;DHT22;19493;48.042;7.584;2023-07-31T05:22:00;15.70;99.90
26505;DHT22;19493;48.042;7.584;2023-07-31T05:24:26;15.80;99.90
26505;DHT22;19493;48.042;7.584;2023-07-31T05:26:51;15.80;99.90
26505;DHT22;19493;48.042;7.584;2023-07-31T05:29:17;15.80;99.90
26505;DHT22;19493;48.042;7.584;2023-07-31T05:31:42;15.90;99.90
26505;DHT22;19493;48.042;7.584;2023-07-31T05:34:08;15.90;99.90
26505;DHT22;19493;48.042;7.584;2023-07-31T05:36:33;16.00;99.90
26505;DHT22;19493;48.042;7.584;2023-07-31T05:38:59;16.10;99.90
26505;DHT22;19493;48.042;7.584;2023-07-31T05:41:24;16.20;99.90
26505;DHT22;19493;48.042;7.584;2023-07-31T05:43:50;16.30;99.90
26505;DHT22;19493;48.042;7.584;2023-07-31T05:46:16;16.30;99.90
26505;DHT22;19493;48.042;7.584;2023-07-31T05:48:42;16.40;99.90
26505;DHT22;19493;48.042;7.584;2023-07-31T05:51:07;16.50;99.90
26505;DHT22;19493;48.042;7.584;2023-07-31T05:53:45;16.50;99.90
26505;DHT22;19493;48.042;7.584;2023-07-31T05:56:11;16.60;99.90
26505;DHT22;19493;48.042;7.584;2023-07-31T05:59:03;16.70;99.90
26505;DHT22;19493;48.042;7.584;2023-07-31T06:01:30;16.90;99.90
26505;DHT22;19493;48.042;7.584;2023-07-31T06:03:55;17.00;99.90
26505;DHT22;19493;48.042;7.584;2023-07-31T06:06:21;17.10;99.90
26505;DHT22;19493;48.042;7.584;2023-07-31T06:08:46;17.20;99.90
26505;DHT22;19493;48.042;7.584;2023-07-31T06:11:12;17.30;99.90
26505;DHT22;19493;48.042;7.584;2023-07-31T06:13:38;17.40;99.90
26505;DHT22;19493;48.042;7.584;2023-07-31T06:16:03;17.30;99.90
26505;DHT22;19493;48.042;7.584;2023-07-31T06:18:53;17.20;99.90
26505;DHT22;19493;48.042;7.584;2023-07-31T06:21:20;17.10;99.90
26505;DHT22;19493;48.042;7.584;2023-07-31T06:27:01;17.30;99.90
26505;DHT22;19493;48.042;7.584;2023-07-31T06:29:29;17.50;99.90
26505;DHT22;19493;48.042;7.584;2023-07-31T06:32:28;17.60;99.90
26505;DHT22;19493;48.042;7.584;2023-07-31T06:34:53;17.70;99.90
26505;DHT22;19493;48.042;7.584;2023-07-31T06:37:19;17.70;99.90
26505;DHT22;19493;48.042;7.584;2023-07-31T06:39:45;17.80;99.90
26505;DHT22;19493;48.042;7.584;2023-07-31T06:42:10;17.90;99.90
26505;DHT22;19493;48.042;7.584;2023-07-31T06:44:37;18.00;99.90
26505;DHT22;19493;48.042;7.584;2023-07-31T06:47:02;18.10;99.90
26505;DHT22;19493;48.042;7.584;2023-07-31T06:49:28;18.20;99.90
26505;DHT22;19493;48.042;7.584;2023-07-31T06:51:54;18.30;99.90
26505;DHT22;19493;48.042;7.584;2023-07-31T06:54:19;18.50;99.90
26505;DHT22;19493;48.042;7.584;2023-07-31T06:56:45;18.60;99.90
26505;DHT22;19493;48.042;7.584;2023-07-31T06:59:10;18.70;99.90
26505;DHT22;19493;48.042;7.584;2023-07-31T07:01:52;18.70;99.90
26505;DHT22;19493;48.042;7.584;2023-07-31T07:04:18;18.70;99.90
26505;DHT22;19493;48.042;7.584;2023-07-31T07:06:43;18.80;99.90
26505;DHT22;19493;48.042;7.584;2023-07-31T07:09:09;18.80;99.90
26505;DHT22;19493;48.042;7.584;2023-07-31T07:11:34;18.90;99.90
26505;DHT22;19493;48.042;7.584;2023-07-31T07:14:00;19.00;99.90
26505;DHT22;19493;48.042;7.584;2023-07-31T07:16:28;19.00;99.90
26505;DHT22;19493;48.042;7.584;2023-07-31T07:18:54;19.10;99.90
26505;DHT22;19493;48.042;7.584;2023-07-31T07:21:19;19.20;99.90
26505;DHT22;19493;48.042;7.584;2023-07-31T07:23:45;19.30;99.90
26505;DHT22;19493;48.042;7.584;2023-07-31T07:26:11;19.60;99.90
26505;DHT22;19493;48.042;7.584;2023-07-31T07:28:36;20.00;99.90
26505;DHT22;19493;48.042;7.584;2023-07-31T07:31:03;20.50;99.90
26505;DHT22;19493;48.042;7.584;2023-07-31T07:33:44;20.80;99.90
26505;DHT22;19493;48.042;7.584;2023-07-31T07:36:10;21.10;99.90
26505;DHT22;19493;48.042;7.584;2023-07-31T07:38:37;21.20;99.90
26505;DHT22;19493;48.042;7.584;2023-07-31T07:41:04;21.20;99.90
26505;DHT22;19493;48.042;7.584;2023-07-31T07:43:30;21.10;99.90
26505;DHT22;19493;48.042;7.584;2023-07-31T07:45:55;21.00;99.90
26505;DHT22;19493;48.042;7.584;2023-07-31T07:48:21;21.00;99.90
26505;DHT22;19493;48.042;7.584;2023-07-31T07:50:48;21.00;99.90
26505;DHT22;19493;48.042;7.584;2023-07-31T07:53:14;21.30;99.90
26505;DHT22;19493;48.042;7.584;2023-07-31T07:55:40;21.50;99.90
26505;DHT22;19493;48.042;7.584;2023-07-31T07:58:05;21.40;99.90
26505;DHT22;19493;48.042;7.584;2023-07-31T08:00:31;21.40;99.90
26505;DHT22;19493;48.042;7.584;2023-07-31T08:02:56;21.50;99.90
26505;DHT22;19493;48.042;7.584;2023-07-31T08:05:23;21.50;99.90
26505;DHT22;19493;48.042;7.584;2023-07-31T08:07:49;21.30;99.90
26505;DHT22;19493;48.042;7.584;2023-07-31T08:10:14;21.40;99.90
26505;DHT22;19493;48.042;7.584;2023-07-31T08:12:40;21.50;99.90
26505;DHT22;19493;48.042;7.584;2023-07-31T08:15:06;21.80;99.90
26505;DHT22;19493;48.042;7.584;2023-07-31T08:17:33;21.90;99.90
26505;DHT22;19493;48.042;7.584;2023-07-31T08:19:58;22.00;99.90
26505;DHT22;19493;48.042;7.584;2023-07-31T08:22:24;22.30;99.90
26505;DHT22;19493;48.042;7.584;2023-07-31T08:24:50;22.30;99.90
26505;DHT22;19493;48.042;7.584;2023-07-31T08:27:16;22.50;99.90
26505;DHT22;19493;48.042;7.584;2023-07-31T08:29:41;22.60;99.90
26505;DHT22;19493;48.042;7.584;2023-07-31T08:32:07;22.60;99.90
26505;DHT22;19493;48.042;7.584;2023-07-31T08:34:33;22.60;99.90
26505;DHT22;19493;48.042;7.584;2023-07-31T08:36:58;22.70;99.90
26505;DHT22;19493;48.042;7.584;2023-07-31T08:39:24;22.90;99.90
26505;DHT22;19493;48.042;7.584;2023-07-31T08:41:49;23.10;99.90
26505;DHT22;19493;48.042;7.584;2023-07-31T08:44:15;22.90;99.90
26505;DHT22;19493;48.042;7.584;2023-07-31T08:46:43;23.20;99.90
26505;DHT22;19493;48.042;7.584;2023-07-31T08:49:09;23.20;99.90
26505;DHT22;19493;48.042;7.584;2023-07-31T08:51:36;23.40;99.90
26505;DHT22;19493;48.042;7.584;2023-07-31T08:54:02;23.70;99.90
26505;DHT22;19493;48.042;7.584;2023-07-31T08:56:35;23.70;99.90
26505;DHT22;19493;48.042;7.584;2023-07-31T08:59:02;24.00;99.90
26505;DHT22;19493;48.042;7.584;2023-07-31T09:01:30;23.80;99.90
26505;DHT22;19493;48.042;7.584;2023-07-31T09:03:58;23.90;99.90
26505;DHT22;19493;48.042;7.584;2023-07-31T09:06:25;23.70;99.90
26505;DHT22;19493;48.042;7.584;2023-07-31T09:08:52;23.60;99.90
26505;DHT22;19493;48.042;7.584;2023-07-31T09:11:18;23.80;99.90
26505;DHT22;19493;48.042;7.584;2023-07-31T09:13:45;23.80;99.90
26505;DHT22;19493;48.042;7.584;2023-07-31T09:16:11;24.30;99.90
26505;DHT22;19493;48.042;7.584;2023-07-31T09:18:56;24.50;99.90
26505;DHT22;19493;48.042;7.584;2023-07-31T09:21:23;24.20;99.90
26505;DHT22;19493;48.042;7.584;2023-07-31T09:23:49;23.90;99.90
26505;DHT22;19493;48.042;7.584;2023-07-31T09:26:35;23.70;99.90
26505;DHT22;19493;48.042;7.584;2023-07-31T09:29:03;23.60;99.90
26505;DHT22;19493;48.042;7.584;2023-07-31T09:33:59;24.60;99.90
26505;DHT22;19493;48.042;7.584;2023-07-31T09:36:29;24.90;99.90
26505;DHT22;19493;48.042;7.584;2023-07-31T09:38:55;24.80;99.90
26505;DHT22;19493;48.042;7.584;2023-07-31T09:41:20;25.20;99.90
26505;DHT22;19493;48.042;7.584;2023-07-31T09:43:53;26.60;99.90
26505;DHT22;19493;48.042;7.584;2023-07-31T09:46:20;27.20;99.90
26505;DHT22;19493;48.042;7.584;2023-07-31T09:48:46;26.90;99.90
26505;DHT22;19493;48.042;7.584;2023-07-31T09:51:11;26.20;99.90
26505;DHT22;19493;48.042;7.584;2023-07-31T09:53:37;25.50;99.90
26505;DHT22;19493;48.042;7.584;2023-07-31T09:56:03;26.00;99.90
26505;DHT22;19493;48.042;7.584;2023-07-31T09:58:30;27.50;99.90
26505;DHT22;19493;48.042;7.584;2023-07-31T10:00:59;28.50;98.60
26505;DHT22;19493;48.042;7.584;2023-07-31T10:03:27;29.00;96.00
26505;DHT22;19493;48.042;7.584;2023-07-31T10:05:56;29.10;95.50
26505;DHT22;19493;48.042;7.584;2023-07-31T10:08:27;29.40;94.80
26505;DHT22;19493;48.042;7.584;2023-07-31T10:10:58;28.90;93.10
26505;DHT22;19493;48.042;7.584;2023-07-31T10:13:24;28.10;93.10
26505;DHT22;19493;48.042;7.584;2023-07-31T10:15:50;27.70;94.10
26505;DHT22;19493;48.042;7.584;2023-07-31T10:18:16;28.50;92.30
26505;DHT22;19493;48.042;7.584;2023-07-31T10:20:44;28.80;91.40
26505;DHT22;19493;48.042;7.584;2023-07-31T10:23:10;28.50;91.10
26505;DHT22;19493;48.042;7.584;2023-07-31T10:25:37;29.10;90.50
26505;DHT22;19493;48.042;7.584;2023-07-31T10:28:04;30.10;89.30
26505;DHT22;19493;48.042;7.584;2023-07-31T10:30:31;30.10;86.00
26505;DHT22;19493;48.042;7.584;2023-07-31T10:32:58;28.90;87.10
26505;DHT22;19493;48.042;7.584;2023-07-31T10:35:24;27.60;90.00
26505;DHT22;19493;48.042;7.584;2023-07-31T10:37:50;26.80;90.60
26505;DHT22;19493;48.042;7.584;2023-07-31T10:40:23;26.30;91.90
26505;DHT22;19493;48.042;7.584;2023-07-31T10:42:50;26.70;92.10
26505;DHT22;19493;48.042;7.584;2023-07-31T10:45:37;27.10;91.60
26505;DHT22;19493;48.042;7.584;2023-07-31T10:48:04;26.20;92.10
26505;DHT22;19493;48.042;7.584;2023-07-31T10:50:31;25.30;92.90
26505;DHT22;19493;48.042;7.584;2023-07-31T10:53:00;25.10;93.60
26505;DHT22;19493;48.042;7.584;2023-07-31T10:55:42;24.90;93.80
26505;DHT22;19493;48.042;7.584;2023-07-31T10:58:11;24.40;94.60
26505;DHT22;19493;48.042;7.584;2023-07-31T11:00:44;24.20;95.40
26505;DHT22;19493;48.042;7.584;2023-07-31T11:08:34;24.70;96.00
26505;DHT22;19493;48.042;7.584;2023-07-31T11:15:55;28.60;92.70
26505;DHT22;19493;48.042;7.584;2023-07-31T11:18:20;29.30;90.60
26505;DHT22;19493;48.042;7.584;2023-07-31T11:20:46;30.00;90.00
26505;DHT22;19493;48.042;7.584;2023-07-31T11:23:12;31.00;84.30
26505;DHT22;19493;48.042;7.584;2023-07-31T11:25:39;30.10;83.80
26505;DHT22;19493;48.042;7.584;2023-07-31T11:28:09;30.40;84.10
26505;DHT22;19493;48.042;7.584;2023-07-31T11:30:35;30.10;83.20
26505;DHT22;19493;48.042;7.584;2023-07-31T11:33:02;29.50;84.20
26505;DHT22;19493;48.042;7.584;2023-07-31T11:35:29;28.50;85.10
26505;DHT22;19493;48.042;7.584;2023-07-31T11:37:55;28.30;86.90
26505;DHT22;19493;48.042;7.584;2023-07-31T11:40:21;27.90;86.10
26505;DHT22;19493;48.042;7.584;2023-07-31T11:42:46;27.70;85.20
26505;DHT22;19493;48.042;7.584;2023-07-31T11:45:12;27.40;86.10
26505;DHT22;19493;48.042;7.584;2023-07-31T11:47:38;27.90;85.40
26505;DHT22;19493;48.042;7.584;2023-07-31T11:50:05;29.70;85.90
26505;DHT22;19493;48.042;7.584;2023-07-31T11:52:37;31.40;79.20
26505;DHT22;19493;48.042;7.584;2023-07-31T11:55:04;32.00;77.00
26505;DHT22;19493;48.042;7.584;2023-07-31T11:57:30;33.00;73.90
26505;DHT22;19493;48.042;7.584;2023-07-31T11:59:56;32.90;70.80
26505;DHT22;19493;48.042;7.584;2023-07-31T12:02:22;31.90;71.80
26505;DHT22;19493;48.042;7.584;2023-07-31T12:04:48;31.70;70.70
26505;DHT22;19493;48.042;7.584;2023-07-31T12:07:14;32.40;70.60
26505;DHT22;19493;48.042;7.584;2023-07-31T12:09:54;33.50;66.50
26505;DHT22;19493;48.042;7.584;2023-07-31T12:12:21;34.10;63.30
26505;DHT22;19493;48.042;7.584;2023-07-31T12:14:47;34.30;62.40
26505;DHT22;19493;48.042;7.584;2023-07-31T12:17:14;35.10;59.30
26505;DHT22;19493;48.042;7.584;2023-07-31T12:19:40;36.60;58.20
26505;DHT22;19493;48.042;7.584;2023-07-31T12:22:14;36.20;54.70
26505;DHT22;19493;48.042;7.584;2023-07-31T12:24:41;35.00;55.30
26505;DHT22;19493;48.042;7.584;2023-07-31T12:27:14;34.40;55.00
26505;DHT22;19493;48.042;7.584;2023-07-31T12:29:43;34.70;54.20
26505;DHT22;19493;48.042;7.584;2023-07-31T12:32:23;35.90;52.50
26505;DHT22;19493;48.042;7.584;2023-07-31T12:34:50;36.90;52.00
26505;DHT22;19493;48.042;7.584;2023-07-31T12:37:16;37.20;50.80
26505;DHT22;19493;48.042;7.584;2023-07-31T12:39:42;37.20;50.30
26505;DHT22;19493;48.042;7.584;2023-07-31T12:42:08;37.50;49.90
26505;DHT22;19493;48.042;7.584;2023-07-31T12:44:33;35.90;49.70
26505;DHT22;19493;48.042;7.584;2023-07-31T12:46:59;35.30;51.50
26505;DHT22;19493;48.042;7.584;2023-07-31T12:51:50;32.20;53.70
26505;DHT22;19493;48.042;7.584;2023-07-31T12:54:16;31.80;55.30
26505;DHT22;19493;48.042;7.584;2023-07-31T12:56:41;31.40;55.00
26505;DHT22;19493;48.042;7.584;2023-07-31T12:59:07;30.50;56.40
26505;DHT22;19493;48.042;7.584;2023-07-31T13:01:32;30.00;58.10
26505;DHT22;19493;48.042;7.584;2023-07-31T13:03:58;29.40;58.00
26505;DHT22;19493;48.042;7.584;2023-07-31T13:06:25;28.70;59.90
26505;DHT22;19493;48.042;7.584;2023-07-31T13:08:51;28.70;61.50
26505;DHT22;19493;48.042;7.584;2023-07-31T13:11:16;29.20;60.60
26505;DHT22;19493;48.042;7.584;2023-07-31T13:13:42;30.90;59.30
26505;DHT22;19493;48.042;7.584;2023-07-31T13:16:07;32.50;57.60
26505;DHT22;19493;48.042;7.584;2023-07-31T13:18:33;33.30;56.40
26505;DHT22;19493;48.042;7.584;2023-07-31T13:20:58;33.70;54.20
26505;DHT22;19493;48.042;7.584;2023-07-31T13:23:24;33.20;54.30
26505;DHT22;19493;48.042;7.584;2023-07-31T13:25:49;32.90;54.90
26505;DHT22;19493;48.042;7.584;2023-07-31T13:28:15;31.40;55.80
26505;DHT22;19493;48.042;7.584;2023-07-31T13:30:41;30.20;57.00
26505;DHT22;19493;48.042;7.584;2023-07-31T13:33:06;29.90;59.10
26505;DHT22;19493;48.042;7.584;2023-07-31T13:35:35;30.40;57.90
26505;DHT22;19493;48.042;7.584;2023-07-31T13:38:00;31.10;57.40
26505;DHT22;19493;48.042;7.584;2023-07-31T13:40:36;32.10;57.50
26505;DHT22;19493;48.042;7.584;2023-07-31T13:43:01;33.60;55.50
26505;DHT22;19493;48.042;7.584;2023-07-31T13:45:27;34.40;53.60
26505;DHT22;19493;48.042;7.584;2023-07-31T13:47:53;35.70;52.10
26505;DHT22;19493;48.042;7.584;2023-07-31T13:50:18;35.60;50.70
26505;DHT22;19493;48.042;7.584;2023-07-31T13:52:46;34.60;50.80
26505;DHT22;19493;48.042;7.584;2023-07-31T13:55:11;32.80;52.70
26505;DHT22;19493;48.042;7.584;2023-07-31T13:57:37;31.80;54.70
26505;DHT22;19493;48.042;7.584;2023-07-31T14:00:03;31.70;55.50
26505;DHT22;19493;48.042;7.584;2023-07-31T14:02:29;31.50;56.10
26505;DHT22;19493;48.042;7.584;2023-07-31T14:04:54;31.70;55.20
26505;DHT22;19493;48.042;7.584;2023-07-31T14:07:23;31.00;55.70
26505;DHT22;19493;48.042;7.584;2023-07-31T14:09:48;30.30;56.80
26505;DHT22;19493;48.042;7.584;2023-07-31T14:12:14;29.80;57.50
26505;DHT22;19493;48.042;7.584;2023-07-31T14:14:39;29.10;58.00
26505;DHT22;19493;48.042;7.584;2023-07-31T14:17:05;28.80;59.30
26505;DHT22;19493;48.042;7.584;2023-07-31T14:19:35;28.50;60.00
26505;DHT22;19493;48.042;7.584;2023-07-31T14:22:00;28.40;60.90
26505;DHT22;19493;48.042;7.584;2023-07-31T14:24:26;29.10;60.10
26505;DHT22;19493;48.042;7.584;2023-07-31T14:26:51;30.40;58.60
26505;DHT22;19493;48.042;7.584;2023-07-31T14:29:18;31.30;56.50
26505;DHT22;19493;48.042;7.584;2023-07-31T14:31:43;31.10;56.30
26505;DHT22;19493;48.042;7.584;2023-07-31T14:34:18;30.60;57.00
26505;DHT22;19493;48.042;7.584;2023-07-31T14:36:43;29.40;57.70
26505;DHT22;19493;48.042;7.584;2023-07-31T14:39:09;28.70;59.60
26505;DHT22;19493;48.042;7.584;2023-07-31T14:41:35;28.40;59.40
26505;DHT22;19493;48.042;7.584;2023-07-31T14:44:00;28.40;60.30
26505;DHT22;19493;48.042;7.584;2023-07-31T14:46:26;28.00;62.00
26505;DHT22;19493;48.042;7.584;2023-07-31T14:48:51;27.90;62.30
26505;DHT22;19493;48.042;7.584;2023-07-31T14:51:17;27.50;62.60
26505;DHT22;19493;48.042;7.584;2023-07-31T14:53:43;27.50;63.00
26505;DHT22;19493;48.042;7.584;2023-07-31T14:56:08;27.50;63.80
26505;DHT22;19493;48.042;7.584;2023-07-31T14:58:34;27.60;64.50
26505;DHT22;19493;48.042;7.584;2023-07-31T15:01:00;28.10;63.80
26505;DHT22;19493;48.042;7.584;2023-07-31T15:03:25;28.50;64.00
26505;DHT22;19493;48.042;7.584;2023-07-31T15:05:51;28.60;64.20
26505;DHT22;19493;48.042;7.584;2023-07-31T15:08:17;28.10;63.30
26505;DHT22;19493;48.042;7.584;2023-07-31T15:10:44;27.70;65.10
26505;DHT22;19493;48.042;7.584;2023-07-31T15:13:10;27.70;64.90
26505;DHT22;19493;48.042;7.584;2023-07-31T15:15:35;27.70;64.20
26505;DHT22;19493;48.042;7.584;2023-07-31T15:18:01;27.60;64.30
26505;DHT22;19493;48.042;7.584;2023-07-31T15:20:26;27.50;64.10
26505;DHT22;19493;48.042;7.584;2023-07-31T15:22:52;27.40;64.70
26505;DHT22;19493;48.042;7.584;2023-07-31T15:25:17;27.30;65.20
26505;DHT22;19493;48.042;7.584;2023-07-31T15:27:43;27.10;65.70
26505;DHT22;19493;48.042;7.584;2023-07-31T15:30:09;26.70;66.40
26505;DHT22;19493;48.042;7.584;2023-07-31T15:32:37;26.40;66.80
26505;DHT22;19493;48.042;7.584;2023-07-31T15:35:03;26.20;67.40
26505;DHT22;19493;48.042;7.584;2023-07-31T15:37:28;26.10;67.70
26505;DHT22;19493;48.042;7.584;2023-07-31T15:39:54;25.90;68.90
26505;DHT22;19493;48.042;7.584;2023-07-31T15:42:19;25.70;69.30
26505;DHT22;19493;48.042;7.584;2023-07-31T15:44:45;25.60;70.70
26505;DHT22;19493;48.042;7.584;2023-07-31T15:47:10;25.50;72.20
26505;DHT22;19493;48.042;7.584;2023-07-31T15:49:36;25.30;73.00